Romance, Arkansas
Current Conditions -  °F | °C
As of 6:49 AM on Monday 22 Dec 2014 (Local Time) from KSRC Reporting Station
Light Rain Light Rain  
Wind Chill: 43°   Ceiling: 300
Heat Index: 48°   Visibility: 7mi
Dew Point: 48°   Wind: 13mph
Humidity: 100%   Direction: 140°SE
Pressure: 29.77"   Gusts: NA
Location:  35.24°N, 92.05°W
Report Text: KSRC 221249Z AUTO 14011KT 7SM -RA OVC003 09/09 A2977 RMK AO2 P0002 TSNO
Loading
Personal Weather Stations






























Interactive Weather Map New forecast layout! Learn more

10-Day Weather Forecast

Advertisements
Track Severe Weather on mobile